createdAt,value
2022-09-17T00:02:08.752Z,12.87
2022-09-17T00:04:35.090Z,12.87
2022-09-17T00:07:01.422Z,12.84
2022-09-17T00:09:28.131Z,12.60
2022-09-17T00:11:54.412Z,12.76
2022-09-17T00:14:20.737Z,12.78
2022-09-17T00:16:47.828Z,12.86
2022-09-17T00:19:18.678Z,12.77
2022-09-17T00:21:45.331Z,12.73
2022-09-17T00:24:12.256Z,12.83
2022-09-17T00:26:38.631Z,12.68
2022-09-17T00:29:05.641Z,12.64
2022-09-17T00:31:32.206Z,12.66
2022-09-17T00:33:59.495Z,12.79
2022-09-17T00:36:25.959Z,12.87
2022-09-17T00:38:53.347Z,12.85
2022-09-17T00:41:20.523Z,12.74
2022-09-17T00:43:49.000Z,12.69
2022-09-17T00:46:30.348Z,12.64
2022-09-17T00:48:58.280Z,12.52
2022-09-17T00:51:30.761Z,12.63
2022-09-17T00:53:57.317Z,12.58
2022-09-17T00:56:27.690Z,12.61
2022-09-17T00:58:54.717Z,12.61
2022-09-17T01:01:21.086Z,12.44
2022-09-17T01:03:47.590Z,12.49
2022-09-17T01:06:32.733Z,12.50
2022-09-17T01:09:15.372Z,12.59
2022-09-17T01:12:00.673Z,12.69
2022-09-17T01:14:40.434Z,12.74
2022-09-17T01:17:14.870Z,12.70
2022-09-17T01:19:59.867Z,12.70
2022-09-17T01:22:26.124Z,12.82
2022-09-17T01:25:10.920Z,13.07
2022-09-17T01:27:56.086Z,13.02
2022-09-17T01:30:41.354Z,13.00
2022-09-17T01:33:13.832Z,13.05
2022-09-17T01:35:48.756Z,13.02
2022-09-17T01:38:20.781Z,13.04
2022-09-17T01:41:07.646Z,12.97
2022-09-17T01:43:42.639Z,13.05
2022-09-17T01:46:09.009Z,13.00
2022-09-17T01:48:40.072Z,13.11
2022-09-17T01:51:06.439Z,12.90
2022-09-17T01:53:41.150Z,12.80
2022-09-17T01:56:09.417Z,12.82
2022-09-17T01:58:40.086Z,12.71
2022-09-17T02:01:07.950Z,12.87
2022-09-17T02:03:41.026Z,12.69
2022-09-17T02:06:10.228Z,12.69
2022-09-17T02:08:42.643Z,12.61
2022-09-17T02:11:13.691Z,12.48
2022-09-17T02:13:58.819Z,12.70
2022-09-17T02:16:28.750Z,12.57
2022-09-17T02:19:04.741Z,12.61
2022-09-17T02:21:49.669Z,12.68
2022-09-17T02:24:17.751Z,12.66
2022-09-17T02:26:58.377Z,12.74
2022-09-17T02:29:41.706Z,12.63
2022-09-17T02:32:08.732Z,12.61
2022-09-17T02:34:35.437Z,12.48
2022-09-17T02:37:03.137Z,12.61
2022-09-17T02:39:29.437Z,12.57
2022-09-17T02:42:07.892Z,12.61
2022-09-17T02:44:39.913Z,12.55
2022-09-17T02:47:15.410Z,12.44
2022-09-17T02:49:42.063Z,12.44
2022-09-17T02:52:27.319Z,12.49
2022-09-17T02:54:56.621Z,12.47
2022-09-17T02:57:35.318Z,12.60
2022-09-17T03:00:07.670Z,12.50
2022-09-17T03:02:37.253Z,12.51
2022-09-17T03:05:04.297Z,12.42
2022-09-17T03:07:32.557Z,12.62
2022-09-17T03:09:58.884Z,12.66
2022-09-17T03:12:26.755Z,12.76
2022-09-17T03:14:53.058Z,12.87
2022-09-17T03:17:19.343Z,12.94
2022-09-17T03:19:45.632Z,12.75
2022-09-17T03:22:12.478Z,12.78
2022-09-17T03:24:38.755Z,12.95
2022-09-17T03:27:05.182Z,12.97
2022-09-17T03:29:31.533Z,13.06
2022-09-17T03:31:57.898Z,12.98
2022-09-17T03:34:24.249Z,12.96
2022-09-17T03:36:50.589Z,12.89
2022-09-17T03:39:16.910Z,12.96
2022-09-17T03:41:43.197Z,12.83
2022-09-17T03:44:11.279Z,12.81
2022-09-17T03:46:37.663Z,12.91
2022-09-17T03:49:04.185Z,12.93
2022-09-17T03:51:31.012Z,12.83
2022-09-17T03:53:57.360Z,12.86
2022-09-17T03:56:23.732Z,12.76
2022-09-17T03:58:50.023Z,12.77
2022-09-17T04:01:16.387Z,12.74
2022-09-17T04:03:42.811Z,12.64
2022-09-17T04:06:09.110Z,12.69
2022-09-17T04:08:36.580Z,12.61
2022-09-17T04:11:02.892Z,12.60
2022-09-17T04:13:29.225Z,12.67
2022-09-17T04:15:55.575Z,12.67
2022-09-17T04:18:21.946Z,12.70
2022-09-17T04:20:48.288Z,12.69
2022-09-17T04:23:14.686Z,12.56
2022-09-17T04:25:41.025Z,12.66
2022-09-17T04:28:07.337Z,12.65
2022-09-17T04:30:33.632Z,12.56
2022-09-17T04:32:59.952Z,12.66
2022-09-17T04:35:26.359Z,12.80
2022-09-17T04:37:53.896Z,12.47
2022-09-17T04:40:20.573Z,12.53
2022-09-17T04:42:47.143Z,12.62
2022-09-17T04:45:13.476Z,12.46
2022-09-17T04:47:39.873Z,12.65
2022-09-17T04:50:06.760Z,12.61
2022-09-17T04:52:33.524Z,12.74
2022-09-17T04:54:59.797Z,12.68
2022-09-17T04:57:26.966Z,12.50
2022-09-17T04:59:53.377Z,12.60
2022-09-17T05:02:19.747Z,12.76
2022-09-17T05:04:46.080Z,12.41
2022-09-17T05:07:13.995Z,12.52
2022-09-17T05:09:40.402Z,12.62
2022-09-17T05:12:06.986Z,12.74
2022-09-17T05:14:33.260Z,12.88
2022-09-17T05:16:59.685Z,12.90
2022-09-17T05:19:26.020Z,13.00
2022-09-17T05:21:52.337Z,12.93
2022-09-17T05:24:18.629Z,13.05
2022-09-17T05:26:46.162Z,13.07
2022-09-17T05:29:12.523Z,13.09
2022-09-17T05:31:38.936Z,13.14
2022-09-17T05:34:05.402Z,13.12
2022-09-17T05:36:31.720Z,13.03
2022-09-17T05:38:58.048Z,13.05
2022-09-17T05:41:24.424Z,12.98
2022-09-17T05:43:51.170Z,13.01
2022-09-17T05:46:17.518Z,13.04
2022-09-17T05:48:44.119Z,13.04
2022-09-17T05:51:10.439Z,12.91
2022-09-17T05:53:36.735Z,12.77
2022-09-17T05:56:03.048Z,12.79
2022-09-17T05:58:29.568Z,12.70
2022-09-17T06:00:55.903Z,12.79
2022-09-17T06:03:24.885Z,12.76
2022-09-17T06:05:53.387Z,12.83
2022-09-17T06:08:19.685Z,12.71
2022-09-17T06:10:45.983Z,12.61
2022-09-17T06:13:12.294Z,12.48
2022-09-17T06:15:38.592Z,12.53
2022-09-17T06:18:05.035Z,12.64
2022-09-17T06:20:31.351Z,12.60
2022-09-17T06:22:58.156Z,12.65
2022-09-17T06:25:25.063Z,12.43
2022-09-17T06:27:51.408Z,12.42
2022-09-17T06:30:17.755Z,12.33
2022-09-17T06:32:44.242Z,12.45
2022-09-17T06:35:10.607Z,12.49
2022-09-17T06:37:40.151Z,12.22
2022-09-17T06:40:07.303Z,12.49
2022-09-17T06:42:33.669Z,12.49
2022-09-17T06:45:03.009Z,12.49
2022-09-17T06:47:33.550Z,12.54
2022-09-17T06:50:01.616Z,12.50
2022-09-17T06:52:28.178Z,12.58
2022-09-17T06:54:54.502Z,12.50
2022-09-17T06:57:20.802Z,12.44
2022-09-17T06:59:47.165Z,12.48
2022-09-17T07:02:13.589Z,12.41
2022-09-17T07:04:39.945Z,12.32
2022-09-17T07:07:06.345Z,12.52
2022-09-17T07:09:32.737Z,12.63
2022-09-17T07:11:59.234Z,12.73
2022-09-17T07:14:25.541Z,12.79
2022-09-17T07:16:52.680Z,12.89
2022-09-17T07:19:18.990Z,12.87
2022-09-17T07:21:47.710Z,13.01
2022-09-17T07:24:14.022Z,13.03
2022-09-17T07:26:40.301Z,13.01
2022-09-17T07:29:06.605Z,13.10
2022-09-17T07:31:32.985Z,13.04
2022-09-17T07:33:59.463Z,13.00
2022-09-17T07:36:25.936Z,13.10
2022-09-17T07:38:52.239Z,13.10
2022-09-17T07:41:18.895Z,13.00
2022-09-17T07:43:45.225Z,13.12
2022-09-17T07:46:16.259Z,12.91
2022-09-17T07:48:42.749Z,13.00
2022-09-17T07:51:14.061Z,13.01
2022-09-17T07:53:40.518Z,12.97
2022-09-17T07:56:11.696Z,13.12
2022-09-17T07:58:38.425Z,13.09
2022-09-17T08:01:06.901Z,13.04
2022-09-17T08:03:33.489Z,13.12
2022-09-17T08:06:04.217Z,13.11
2022-09-17T08:08:34.073Z,13.02
2022-09-17T08:11:01.742Z,13.05
2022-09-17T08:13:28.257Z,13.08
2022-09-17T08:15:57.853Z,13.20
2022-09-17T08:18:24.197Z,13.01
2022-09-17T08:20:50.488Z,12.95
2022-09-17T08:23:16.802Z,12.98
2022-09-17T08:25:43.103Z,13.01
2022-09-17T08:28:09.426Z,13.06
2022-09-17T08:30:35.814Z,13.13
2022-09-17T08:33:02.110Z,13.26
2022-09-17T08:35:28.396Z,13.25
2022-09-17T08:37:55.864Z,13.31
2022-09-17T08:40:22.978Z,13.43
2022-09-17T08:42:51.909Z,13.45
2022-09-17T08:45:19.159Z,13.32
2022-09-17T08:47:46.277Z,13.26
2022-09-17T08:50:14.903Z,13.58
2022-09-17T08:52:47.349Z,13.44
2022-09-17T08:55:19.889Z,13.48
2022-09-17T08:57:58.249Z,13.56
2022-09-17T09:00:24.856Z,13.46
2022-09-17T09:02:55.940Z,13.54
2022-09-17T09:05:33.174Z,13.48
2022-09-17T09:08:05.541Z,13.64
2022-09-17T09:10:39.077Z,13.85
2022-09-17T09:13:05.842Z,13.80
2022-09-17T09:15:42.620Z,13.93
2022-09-17T09:18:19.347Z,14.10
2022-09-17T09:20:46.564Z,13.89
2022-09-17T09:23:17.539Z,13.96
2022-09-17T09:25:52.062Z,13.78
2022-09-17T09:28:24.350Z,14.00
2022-09-17T09:30:50.643Z,14.08
2022-09-17T09:33:19.407Z,14.04
2022-09-17T09:35:45.878Z,14.07
2022-09-17T09:38:15.979Z,14.08
2022-09-17T09:40:53.484Z,14.22
2022-09-17T09:43:21.496Z,14.17
2022-09-17T09:45:53.914Z,14.04
2022-09-17T09:48:32.100Z,14.13
2022-09-17T09:51:18.637Z,14.05
2022-09-17T09:53:53.385Z,14.11
2022-09-17T09:56:38.095Z,13.95
2022-09-17T09:59:06.960Z,13.95
2022-09-17T10:01:34.365Z,13.87
2022-09-17T10:04:00.885Z,13.94
2022-09-17T10:06:29.792Z,13.85
2022-09-17T10:08:56.142Z,13.76
2022-09-17T10:11:29.401Z,13.97
2022-09-17T10:14:14.023Z,13.92
2022-09-17T10:16:40.447Z,13.82
2022-09-17T10:19:06.889Z,13.77
2022-09-17T10:21:33.245Z,13.81
2022-09-17T10:24:00.399Z,13.66
2022-09-17T10:26:29.493Z,13.78
2022-09-17T10:28:57.106Z,13.95
2022-09-17T10:31:23.606Z,13.92
2022-09-17T10:34:12.765Z,13.71
2022-09-17T10:36:39.524Z,13.97
2022-09-17T10:39:44.190Z,13.93
2022-09-17T10:42:17.389Z,13.92
2022-09-17T10:45:00.767Z,13.86
2022-09-17T10:47:37.455Z,13.80
2022-09-17T10:50:15.958Z,13.91
2022-09-17T10:52:47.940Z,13.91
2022-09-17T10:55:33.499Z,14.02
2022-09-17T10:58:04.112Z,13.91
2022-09-17T11:00:44.869Z,13.96
2022-09-17T11:03:14.157Z,13.88
2022-09-17T11:05:55.731Z,14.06
2022-09-17T11:08:38.618Z,14.11
2022-09-17T11:11:12.293Z,14.01
2022-09-17T11:14:01.097Z,14.25
2022-09-17T11:16:33.581Z,14.23
2022-09-17T11:19:05.972Z,14.36
2022-09-17T11:21:39.694Z,14.37
2022-09-17T11:24:05.984Z,14.29
2022-09-17T11:26:38.105Z,14.35
2022-09-17T11:29:20.557Z,14.46
2022-09-17T11:31:54.603Z,14.47
2022-09-17T11:34:20.938Z,14.35
2022-09-17T11:36:59.436Z,14.46
2022-09-17T11:39:30.973Z,14.27
2022-09-17T11:42:00.333Z,14.11
2022-09-17T11:44:32.410Z,14.32
2022-09-17T11:47:03.357Z,14.38
2022-09-17T11:49:30.011Z,14.40
2022-09-17T11:51:59.365Z,14.41
2022-09-17T11:54:25.688Z,14.36
2022-09-17T11:56:54.203Z,14.36
2022-09-17T11:59:20.587Z,14.24
2022-09-17T12:01:58.028Z,14.36
2022-09-17T12:04:40.660Z,14.31
2022-09-17T12:07:26.463Z,14.41
2022-09-17T12:10:11.592Z,14.40
2022-09-17T12:12:50.521Z,14.26
2022-09-17T12:15:28.081Z,14.10
2022-09-17T12:18:08.708Z,14.32
2022-09-17T12:20:42.624Z,14.29
2022-09-17T12:23:14.967Z,14.43
2022-09-17T12:26:04.306Z,14.32
2022-09-17T12:28:39.494Z,14.47
2022-09-17T12:31:11.534Z,14.44
2022-09-17T12:33:41.799Z,14.62
2022-09-17T12:36:28.409Z,14.54
2022-09-17T12:39:15.308Z,14.38
2022-09-17T12:41:59.992Z,14.48
2022-09-17T12:44:45.117Z,14.57
2022-09-17T12:47:37.514Z,14.63
2022-09-17T12:50:08.597Z,14.58
2022-09-17T12:52:52.643Z,14.57
2022-09-17T12:55:37.763Z,14.53
2022-09-17T12:58:39.641Z,14.72
2022-09-17T13:01:22.836Z,14.75
2022-09-17T13:03:54.398Z,14.85
2022-09-17T13:06:29.969Z,14.90
2022-09-17T13:09:02.319Z,15.01
2022-09-17T13:11:41.292Z,15.11
2022-09-17T13:14:27.409Z,15.12
2022-09-17T13:17:00.936Z,15.06
2022-09-17T13:19:44.002Z,15.14
2022-09-17T13:22:17.538Z,14.88
2022-09-17T13:24:47.144Z,15.00
2022-09-17T13:27:25.922Z,14.98
2022-09-17T13:29:55.176Z,15.00
2022-09-17T13:32:33.810Z,14.95
2022-09-17T13:35:12.445Z,14.81
2022-09-17T13:37:41.890Z,14.62
2022-09-17T13:40:23.722Z,14.68
2022-09-17T13:42:55.257Z,14.69
2022-09-17T13:45:22.700Z,14.64
2022-09-17T13:47:55.196Z,14.46
2022-09-17T13:50:30.257Z,14.47
2022-09-17T13:53:01.241Z,14.35
2022-09-17T13:55:44.625Z,14.34
2022-09-17T13:58:13.923Z,14.44
2022-09-17T14:00:52.619Z,14.39
2022-09-17T14:03:31.138Z,14.25
2022-09-17T14:06:26.570Z,14.29
2022-09-17T14:08:57.852Z,14.31
2022-09-17T14:11:28.088Z,14.28
2022-09-17T14:13:55.107Z,14.17
2022-09-17T14:16:41.770Z,14.29
2022-09-17T14:19:23.372Z,14.07
2022-09-17T14:22:01.911Z,14.10
2022-09-17T14:24:31.169Z,13.97
2022-09-17T14:27:00.534Z,13.95
2022-09-17T14:29:27.052Z,14.03
2022-09-17T14:31:53.404Z,13.99
2022-09-17T14:34:21.121Z,13.99
2022-09-17T14:36:47.859Z,14.05
2022-09-17T14:39:25.356Z,13.95
2022-09-17T14:41:54.563Z,13.97
2022-09-17T14:44:22.403Z,13.82
2022-09-17T14:46:54.535Z,13.98
2022-09-17T14:49:22.869Z,13.75
2022-09-17T14:51:58.610Z,13.84
2022-09-17T14:54:32.338Z,13.82
2022-09-17T14:57:10.518Z,13.93
2022-09-17T14:59:36.789Z,13.70
2022-09-17T15:02:03.279Z,13.76
2022-09-17T15:04:29.681Z,13.80
2022-09-17T15:07:08.997Z,13.84
2022-09-17T15:09:35.375Z,13.79
2022-09-17T15:12:02.073Z,13.65
2022-09-17T15:14:33.564Z,13.74
2022-09-17T15:17:01.849Z,13.82
2022-09-17T15:19:30.996Z,13.78
2022-09-17T15:21:57.466Z,13.83
2022-09-17T15:24:23.759Z,13.75
2022-09-17T15:26:53.322Z,13.72
2022-09-17T15:29:22.199Z,13.50
2022-09-17T15:31:48.863Z,13.59
2022-09-17T15:34:15.306Z,13.55
2022-09-17T15:37:01.559Z,13.47
2022-09-17T15:39:30.111Z,13.62
2022-09-17T15:41:57.082Z,13.49
2022-09-17T15:44:30.819Z,13.50
2022-09-17T15:47:17.218Z,13.44
2022-09-17T15:50:03.592Z,13.31
2022-09-17T15:52:34.138Z,13.30
2022-09-17T15:55:00.716Z,13.32
2022-09-17T15:57:30.530Z,13.35
2022-09-17T16:00:05.212Z,13.26
2022-09-17T16:02:32.385Z,13.28
2022-09-17T16:05:14.400Z,13.27
2022-09-17T16:07:41.784Z,13.33
2022-09-17T16:10:09.105Z,13.22
2022-09-17T16:12:36.009Z,13.22
2022-09-17T16:15:02.956Z,13.10
2022-09-17T16:17:49.593Z,13.03
2022-09-17T16:20:18.078Z,13.06
2022-09-17T16:22:45.167Z,13.19
2022-09-17T16:25:11.567Z,13.13
2022-09-17T16:27:42.660Z,12.99
2022-09-17T16:30:14.007Z,13.17
2022-09-17T16:32:40.285Z,12.96
2022-09-17T16:35:06.766Z,12.98
2022-09-17T16:37:33.056Z,12.66
2022-09-17T16:40:00.870Z,12.71
2022-09-17T16:42:30.142Z,12.65
2022-09-17T16:44:56.504Z,12.76
2022-09-17T16:47:22.899Z,12.75
2022-09-17T16:49:49.267Z,12.66
2022-09-17T16:52:15.563Z,12.80
2022-09-17T16:54:41.863Z,12.63
2022-09-17T16:57:08.216Z,12.63
2022-09-17T16:59:34.606Z,12.62
2022-09-17T17:02:01.385Z,12.82
2022-09-17T17:04:27.732Z,12.84
2022-09-17T17:06:54.049Z,12.77
2022-09-17T17:09:20.379Z,12.87
2022-09-17T17:11:46.739Z,12.93
2022-09-17T17:14:14.946Z,12.71
2022-09-17T17:16:43.441Z,12.79
2022-09-17T17:19:09.781Z,13.02
2022-09-17T17:21:36.227Z,12.91
2022-09-17T17:24:03.148Z,12.98
2022-09-17T17:26:29.534Z,12.95
2022-09-17T17:28:56.015Z,13.09
2022-09-17T17:31:22.366Z,13.08
2022-09-17T17:33:48.738Z,13.08
2022-09-17T17:36:15.085Z,13.04
2022-09-17T17:38:41.532Z,13.16
2022-09-17T17:41:09.389Z,13.09
2022-09-17T17:43:36.126Z,12.96
2022-09-17T17:46:05.085Z,13.01
2022-09-17T17:48:31.407Z,12.80
2022-09-17T17:51:07.823Z,12.66
2022-09-17T17:53:34.983Z,12.59
2022-09-17T17:56:02.785Z,12.58
2022-09-17T17:58:29.193Z,12.72
2022-09-17T18:00:56.203Z,12.69
2022-09-17T18:03:25.072Z,12.96
2022-09-17T18:05:58.454Z,12.51
2022-09-17T18:08:24.873Z,12.53
2022-09-17T18:10:55.458Z,12.41
2022-09-17T18:13:22.537Z,12.22
2022-09-17T18:15:52.960Z,12.29
2022-09-17T18:18:19.655Z,11.98
2022-09-17T18:20:46.193Z,12.29
2022-09-17T18:23:12.532Z,12.23
2022-09-17T18:25:38.829Z,12.07
2022-09-17T18:28:05.221Z,11.83
2022-09-17T18:30:32.504Z,11.86
2022-09-17T18:32:58.868Z,12.24
2022-09-17T18:35:25.371Z,12.32
2022-09-17T18:37:51.685Z,12.30
2022-09-17T18:40:18.017Z,12.39
2022-09-17T18:42:44.392Z,12.36
2022-09-17T18:45:10.878Z,12.45
2022-09-17T18:47:37.176Z,12.44
2022-09-17T18:50:03.632Z,12.17
2022-09-17T18:52:29.945Z,12.17
2022-09-17T18:54:56.224Z,11.92
2022-09-17T18:57:22.589Z,12.21
2022-09-17T18:59:48.958Z,12.26
2022-09-17T19:02:15.309Z,12.29
2022-09-17T19:04:41.682Z,12.40
2022-09-17T19:07:07.985Z,12.45
2022-09-17T19:09:34.290Z,12.36
2022-09-17T19:12:00.662Z,12.42
2022-09-17T19:14:27.015Z,12.46
2022-09-17T19:16:55.118Z,12.43
2022-09-17T19:19:21.458Z,12.38
2022-09-17T19:21:48.959Z,12.41
2022-09-17T19:24:15.266Z,12.39
2022-09-17T19:26:41.710Z,12.35
2022-09-17T19:29:09.015Z,12.13
2022-09-17T19:31:35.436Z,12.36
2022-09-17T19:34:02.049Z,12.34
2022-09-17T19:36:28.458Z,12.38
2022-09-17T19:38:54.988Z,12.37
2022-09-17T19:41:25.098Z,12.41
2022-09-17T19:43:52.240Z,12.45
2022-09-17T19:46:19.593Z,12.49
2022-09-17T19:48:46.993Z,12.44
2022-09-17T19:51:13.854Z,12.50
2022-09-17T19:53:40.473Z,12.43
2022-09-17T19:56:07.357Z,12.35
2022-09-17T19:58:33.692Z,12.44
2022-09-17T20:01:00.043Z,12.40
2022-09-17T20:03:26.824Z,12.39
2022-09-17T20:06:03.908Z,12.42
2022-09-17T20:08:30.590Z,12.33
2022-09-17T20:10:59.953Z,12.32
2022-09-17T20:13:26.343Z,11.98
2022-09-17T20:15:52.688Z,12.13
2022-09-17T20:18:23.343Z,12.25
2022-09-17T20:20:50.082Z,12.18
2022-09-17T20:23:16.609Z,12.26
2022-09-17T20:25:45.681Z,12.15
2022-09-17T20:28:11.978Z,12.13
2022-09-17T20:30:38.283Z,12.04
2022-09-17T20:33:04.676Z,11.81
2022-09-17T20:35:30.990Z,11.73
2022-09-17T20:40:44.138Z,11.87
2022-09-17T20:43:10.446Z,11.93
2022-09-17T20:45:36.812Z,11.52
2022-09-17T20:48:03.290Z,11.54
2022-09-17T20:50:29.595Z,11.26
2022-09-17T20:52:56.230Z,11.43
2022-09-17T20:55:22.540Z,11.34
2022-09-17T20:57:48.840Z,11.35
2022-09-17T21:00:20.624Z,11.48
2022-09-17T21:02:51.768Z,11.42
2022-09-17T21:05:18.470Z,11.36
2022-09-17T21:07:44.879Z,11.45
2022-09-17T21:10:12.425Z,11.50
2022-09-17T21:12:38.795Z,11.50
2022-09-17T21:15:05.390Z,11.76
2022-09-17T21:17:33.816Z,11.72
2022-09-17T21:20:00.119Z,11.87
2022-09-17T21:22:26.469Z,11.84
2022-09-17T21:24:52.826Z,11.98
2022-09-17T21:27:19.106Z,12.09
2022-09-17T21:29:45.421Z,12.08
2022-09-17T21:32:11.711Z,12.04
2022-09-17T21:34:38.072Z,12.18
2022-09-17T21:37:05.036Z,12.11
2022-09-17T21:39:34.947Z,12.16
2022-09-17T21:42:01.312Z,12.13
2022-09-17T21:44:27.576Z,12.10
2022-09-17T21:46:57.403Z,11.92
2022-09-17T21:49:24.787Z,12.04
2022-09-17T21:51:51.127Z,11.94
2022-09-17T21:54:17.946Z,11.91
2022-09-17T21:56:44.683Z,11.97
2022-09-17T21:59:12.465Z,11.79
2022-09-17T22:01:40.547Z,11.92
2022-09-17T22:04:08.331Z,11.71
2022-09-17T22:06:35.286Z,11.65
2022-09-17T22:09:02.349Z,11.68
2022-09-17T22:11:33.594Z,11.59
2022-09-17T22:14:25.969Z,11.65
2022-09-17T22:16:54.040Z,11.46
2022-09-17T22:19:21.151Z,11.67
2022-09-17T22:21:49.088Z,11.78
2022-09-17T22:24:15.998Z,11.67
2022-09-17T22:26:43.549Z,11.67
2022-09-17T22:29:14.394Z,11.58
2022-09-17T22:31:40.791Z,11.43
2022-09-17T22:34:08.306Z,11.52
2022-09-17T22:36:34.657Z,11.67
2022-09-17T22:39:01.088Z,11.64
2022-09-17T22:41:28.802Z,11.71
2022-09-17T22:44:00.141Z,11.56
2022-09-17T22:46:27.540Z,11.46
2022-09-17T22:48:54.300Z,11.59
2022-09-17T22:51:20.719Z,11.66
2022-09-17T22:53:47.091Z,11.74
2022-09-17T22:56:15.041Z,11.59
2022-09-17T22:58:41.803Z,11.58
2022-09-17T23:01:12.685Z,11.52
2022-09-17T23:03:40.152Z,11.63
2022-09-17T23:06:08.258Z,11.69
2022-09-17T23:08:35.123Z,11.66
2022-09-17T23:11:01.509Z,11.79
2022-09-17T23:13:29.304Z,11.84
2022-09-17T23:16:06.077Z,11.79
2022-09-17T23:18:32.494Z,11.93
2022-09-17T23:20:59.380Z,12.07
2022-09-17T23:23:26.292Z,12.06
2022-09-17T23:25:53.015Z,12.10
2022-09-17T23:28:19.306Z,12.23
2022-09-17T23:30:47.129Z,12.27
2022-09-17T23:33:14.559Z,12.37
2022-09-17T23:35:40.908Z,12.34
2022-09-17T23:38:07.305Z,12.49
2022-09-17T23:40:34.205Z,12.39
2022-09-17T23:43:00.667Z,12.26
2022-09-17T23:45:26.967Z,12.17
2022-09-17T23:47:53.443Z,12.27
2022-09-17T23:50:19.771Z,12.20
2022-09-17T23:52:46.051Z,12.31
2022-09-17T23:55:12.363Z,12.10
2022-09-17T23:57:39.065Z,12.02
